Welcome to Northern Hawkes Bay. New Zealand.
PWS Header
      nz Flag



Hit Counter


W3C Valid W3C Valid logo


    Wairoa

Select any of the Stations below to visit their websites.










Historic Data from Weather Underground
Select the location of interest below. Wairoa is the default. Please have patience, this Data is slow to load in.
Northern Hawkes Bay Historical Data
Daily Summary for June 10, 2017 Units:  Metric    English   Both
« Previous Day
Next Day »
Daily Weekly Monthly Yearly Custom
  High: Low: Average:
Temperature: 19.8 °C 0.0 °C 10.8 °C
Dew Point: 8.3 °C -28.1 °C 5.3 °C
Humidity: 96% 10% 73%
Wind Speed: 15.8km/h 0.0km/h 6.1km/h
Wind Gust: 21.9km/h - -
Wind- - SW
Pressure: 1024.9 hPa 1011.4 hPa -
Precipitation: 0.0 mm    
Historical Graphs
 
 
Tabular Data for June 10, 2017
Time Temperature Dew Point Pressure Wind Wind Speed Wind Gust Humidity Rainfall Rate (Hourly) solar
00:01 4.4 °C 3.8 °C 1016.8 hPa NNW 6.1 km/h 9.7 km/h 96% 0.0 mm 0 W/m2
00:06 4.5 °C 3.9 °C 1016.8 hPa NNW 6.1 km/h 12.2 km/h 96% 0.0 mm 0 W/m2
00:11 4.5 °C 3.9 °C 1016.5 hPa NW 8.7 km/h 13.4 km/h 96% 0.0 mm 0 W/m2
00:16 4.5 °C 3.9 °C 1016.8 hPa NW 9.7 km/h 13.4 km/h 96% 0.0 mm 0 W/m2
00:21 4.5 °C 3.9 °C 1016.5 hPa NW 8.7 km/h 14.8 km/h 96% 0.0 mm 0 W/m2
00:26 4.6 °C 4.0 °C 1016.5 hPa NW 8.7 km/h 14.8 km/h 96% 0.0 mm 0 W/m2
00:31 4.7 °C 4.1 °C 1016.5 hPa NNW 7.2 km/h 13.4 km/h 96% 0.0 mm 0 W/m2
00:36 4.6 °C 4.0 °C 1016.5 hPa NNW 7.2 km/h 13.4 km/h 96% 0.0 mm 0 W/m2
00:41 4.6 °C 3.9 °C 1016.5 hPa North 8.7 km/h 12.2 km/h 95% 0.0 mm 0 W/m2
00:46 4.6 °C 3.9 °C 1016.5 hPa North 6.1 km/h 14.8 km/h 95% 0.0 mm 0 W/m2
00:51 4.7 °C 3.9 °C 1016.5 hPa NNW 6.1 km/h 14.8 km/h 95% 0.0 mm 0 W/m2
00:56 4.6 °C 3.9 °C 1016.1 hPa North 6.1 km/h 13.4 km/h 95% 0.0 mm 0 W/m2
01:01 4.5 °C 3.8 °C 1016.1 hPa North 2.6 km/h 9.7 km/h 95% 0.0 mm 0 W/m2
01:06 4.3 °C 3.6 °C 1016.1 hPa NNW 5.0 km/h 8.7 km/h 95% 0.0 mm 0 W/m2
01:11 4.3 °C 3.6 °C 1016.1 hPa North 5.0 km/h 7.2 km/h 95% 0.0 mm 0 W/m2
01:16 4.3 °C 3.6 °C 1015.8 hPa North 7.2 km/h 9.7 km/h 95% 0.0 mm 0 W/m2
01:21 4.3 °C 3.6 °C 1015.8 hPa NNW 6.1 km/h 11.1 km/h 95% 0.0 mm 0 W/m2
01:26 4.3 °C 3.6 °C 1015.8 hPa NNW 6.1 km/h 11.1 km/h 95% 0.0 mm 0 W/m2
01:31 4.2 °C 3.5 °C 1015.5 hPa NW 8.7 km/h 11.1 km/h 95% 0.0 mm 0 W/m2
01:36 4.2 °C 3.5 °C 1015.5 hPa NNW 8.7 km/h 13.4 km/h 95% 0.0 mm 0 W/m2
01:41 4.2 °C 3.5 °C 1015.8 hPa NW 6.1 km/h 13.4 km/h 95% 0.0 mm 0 W/m2
01:46 4.2 °C 3.5 °C 1015.8 hPa NNW 5.0 km/h 13.4 km/h 95% 0.0 mm 0 W/m2
01:51 4.2 °C 3.5 °C 1015.5 hPa NNW 2.6 km/h 13.4 km/h 95% 0.0 mm 0 W/m2
01:56 4.2 °C 3.5 °C 1015.1 hPa North 5.0 km/h 9.7 km/h 95% 0.0 mm 0 W/m2
02:01 4.3 °C 3.6 °C 1015.1 hPa North 5.0 km/h 9.7 km/h 95% 0.0 mm 0 W/m2
02:06 4.5 °C 3.8 °C 1015.1 hPa NNW 8.7 km/h 12.2 km/h 95% 0.0 mm 0 W/m2
02:11 4.6 °C 3.9 °C 1015.1 hPa NNW 8.7 km/h 12.2 km/h 95% 0.0 mm 0 W/m2
02:16 4.6 °C 3.9 °C 1015.1 hPa North 8.7 km/h 14.8 km/h 95% 0.0 mm 0 W/m2
02:21 4.5 °C 3.8 °C 1014.8 hPa NNW 9.7 km/h 17.2 km/h 95% 0.0 mm 0 W/m2
02:26 4.3 °C 3.4 °C 1014.8 hPa NNW 9.7 km/h 17.2 km/h 94% 0.0 mm 0 W/m2
02:31 4.1 °C 3.2 °C 1014.8 hPa NW 9.7 km/h 17.2 km/h 94% 0.0 mm 0 W/m2
02:36 3.9 °C 3.2 °C 1014.8 hPa NW 11.1 km/h 15.8 km/h 95% 0.0 mm 0 W/m2
02:41 3.8 °C 3.1 °C 1014.8 hPa NNW 9.7 km/h 15.8 km/h 95% 0.0 mm 0 W/m2
02:46 3.7 °C 3.0 °C 1014.4 hPa NNW 12.2 km/h 14.8 km/h 95% 0.0 mm 0 W/m2
02:51 3.7 °C 3.0 °C 1014.4 hPa NNW 13.4 km/h 15.8 km/h 95% 0.0 mm 0 W/m2
02:56 3.6 °C 2.9 °C 1014.1 hPa NW 8.7 km/h 15.8 km/h 95% 0.0 mm 0 W/m2
03:01 3.7 °C 3.0 °C 1014.1 hPa NNW 9.7 km/h 15.8 km/h 95% 0.0 mm 0 W/m2
03:06 3.7 °C 3.1 °C 1013.8 hPa NNW 8.7 km/h 15.8 km/h 96% 0.0 mm 0 W/m2
03:11 3.7 °C 3.1 °C 1013.8 hPa NNW 8.7 km/h 15.8 km/h 96% 0.0 mm 0 W/m2
03:16 3.7 °C 3.1 °C 1014.1 hPa NNW 11.1 km/h 14.8 km/h 96% 0.0 mm 0 W/m2
03:21 3.7 °C 3.1 °C 1013.8 hPa NNW 13.4 km/h 19.5 km/h 96% 0.0 mm 0 W/m2
03:26 3.7 °C 3.1 °C 1013.4 hPa NNW 14.8 km/h 19.5 km/h 96% 0.0 mm 0 W/m2
03:31 3.7 °C 3.1 °C 1013.8 hPa NW 9.7 km/h 18.3 km/h 96% 0.0 mm 0 W/m2
03:36 3.6 °C 3.0 °C 1013.4 hPa NNW 7.2 km/h 18.3 km/h 96% 0.0 mm 0 W/m2
03:41 3.5 °C 2.9 °C 1013.4 hPa NNW 7.2 km/h 14.8 km/h 96% 0.0 mm 0 W/m2
03:46 3.4 °C 2.7 °C 1013.1 hPa NNW 7.2 km/h 15.8 km/h 95% 0.0 mm 0 W/m2
03:51 3.4 °C 2.7 °C 1013.1 hPa NNW 8.7 km/h 15.8 km/h 95% 0.0 mm 0 W/m2
03:56 3.4 °C 2.8 °C 1013.1 hPa NNW 11.1 km/h 17.2 km/h 96% 0.0 mm 0 W/m2
04:01 3.5 °C 2.9 °C 1012.8 hPa NNW 8.7 km/h 18.3 km/h 96% 0.0 mm 0 W/m2
04:06 3.5 °C 2.9 °C 1012.8 hPa NNW 13.4 km/h 20.9 km/h 96% 0.0 mm 0 W/m2
04:11 3.4 °C 2.8 °C 1012.8 hPa NNW 9.7 km/h 20.9 km/h 96% 0.0 mm 0 W/m2
04:16 3.4 °C 2.8 °C 1012.8 hPa NNW 8.7 km/h 18.3 km/h 96% 0.0 mm 0 W/m2
04:21 3.3 °C 2.6 °C 1012.8 hPa NW 12.2 km/h 21.9 km/h 95% 0.0 mm 0 W/m2
04:26 3.2 °C 2.5 °C 1012.8 hPa NW 12.2 km/h 21.9 km/h 95% 0.0 mm 0 W/m2
04:31 3.2 °C 2.5 °C 1012.8 hPa NNW 8.7 km/h 17.2 km/h 95% 0.0 mm 0 W/m2
04:36 3.1 °C 2.4 °C 1012.8 hPa NNW 7.2 km/h 15.8 km/h 95% 0.0 mm 0 W/m2
04:41 3.1 °C 2.4 °C 1012.4 hPa NW 7.2 km/h 15.8 km/h 95% 0.0 mm 0 W/m2
04:46 3.1 °C 2.4 °C 1012.1 hPa NW 7.2 km/h 13.4 km/h 95% 0.0 mm 0 W/m2
04:51 3.1 °C 2.4 °C 1012.4 hPa NNW 9.7 km/h 14.8 km/h 95% 0.0 mm 0 W/m2
04:56 3.1 °C 2.4 °C 1012.1 hPa North 3.5 km/h 14.8 km/h 95% 0.0 mm 0 W/m2
05:01 3.1 °C 2.4 °C 1012.1 hPa NNW 7.2 km/h 14.8 km/h 95% 0.0 mm 0 W/m2
05:06 3.2 °C 2.6 °C 1011.7 hPa NNW 11.1 km/h 15.8 km/h 96% 0.0 mm 0 W/m2
05:11 3.2 °C 2.5 °C 1012.1 hPa NNW 8.7 km/h 21.9 km/h 95% 0.0 mm 0 W/m2
05:16 3.1 °C 2.4 °C 1011.7 hPa NNW 8.7 km/h 21.9 km/h 95% 0.0 mm 0 W/m2
05:21 3.0 °C 2.3 °C 1011.7 hPa NNW 9.7 km/h 15.8 km/h 95% 0.0 mm 0 W/m2
05:26 3.1 °C 2.4 °C 1011.7 hPa NNW 14.8 km/h 19.5 km/h 95% 0.0 mm 0 W/m2
05:31 3.1 °C 2.4 °C 1011.7 hPa NNW 13.4 km/h 19.5 km/h 95% 0.0 mm 0 W/m2
05:36 3.2 °C 2.5 °C 1011.7 hPa NNW 11.1 km/h 19.5 km/h 95% 0.0 mm 0 W/m2
05:41 3.2 °C 2.5 °C 1011.4 hPa NNW 9.7 km/h 19.5 km/h 95% 0.0 mm 0 W/m2
05:46 3.4 °C 2.7 °C 1011.4 hPa NNW 7.2 km/h 15.8 km/h 95% 0.0 mm 0 W/m2
05:51 3.4 °C 2.7 °C 1011.4 hPa NNW 14.8 km/h 19.5 km/h 95% 0.0 mm 0 W/m2
05:56 3.4 °C 2.7 °C 1011.4 hPa North 14.8 km/h 19.5 km/h 95% 0.0 mm 0 W/m2
06:01 3.3 °C 2.6 °C 1011.4 hPa North 11.1 km/h 20.9 km/h 95% 0.0 mm 0 W/m2
06:06 3.5 °C 2.8 °C 1011.7 hPa NNW 8.7 km/h 20.9 km/h 95% 0.0 mm 0 W/m2
06:11 3.5 °C 2.8 °C 1011.7 hPa NNW 9.7 km/h 20.9 km/h 95% 0.0 mm 0 W/m2
06:16 3.6 °C 2.9 °C 1011.7 hPa NNW 8.7 km/h 17.2 km/h 95% 0.0 mm 0 W/m2
06:21 3.5 °C 2.6 °C 1012.1 hPa North 5.0 km/h 17.2 km/h 94% 0.0 mm 0 W/m2
06:26 3.4 °C 2.6 °C 1012.1 hPa North 5.0 km/h 15.8 km/h 94% 0.0 mm 0 W/m2
06:31 3.4 °C 2.6 °C 1012.1 hPa NNW 8.7 km/h 11.1 km/h 94% 0.0 mm 0 W/m2
06:36 3.5 °C 2.6 °C 1012.1 hPa NW 7.2 km/h 12.2 km/h 94% 0.0 mm 0 W/m2
06:41 3.5 °C 2.6 °C 1012.1 hPa NW 7.2 km/h 12.2 km/h 94% 0.0 mm 0 W/m2
06:46 3.3 °C 2.4 °C 1012.1 hPa NW 7.2 km/h 12.2 km/h 94% 0.0 mm 0 W/m2
06:51 3.1 °C 2.1 °C 1012.1 hPa NW 9.7 km/h 13.4 km/h 93% 0.0 mm 0 W/m2
06:56 3.0 °C 2.1 °C 1012.1 hPa NW 9.7 km/h 13.4 km/h 94% 0.0 mm 0 W/m2
07:01 3.0 °C 2.1 °C 1012.4 hPa NW 11.1 km/h 14.8 km/h 94% 0.0 mm 0 W/m2
07:06 3.0 °C 2.1 °C 1012.1 hPa NW 8.7 km/h 14.8 km/h 94% 0.0 mm 0 W/m2
07:11 2.9 °C 1.4 °C 1012.1 hPa NW 7.2 km/h 14.8 km/h 90% 0.0 mm 0 W/m2
07:16 2.8 °C 1.5 °C 1012.4 hPa NW 7.2 km/h 14.8 km/h 91% 0.0 mm 0 W/m2
07:21 2.8 °C 1.3 °C 1012.1 hPa NW 7.2 km/h 12.2 km/h 90% 0.0 mm 2 W/m2
07:26 2.8 °C 1.5 °C 1012.1 hPa NNW 3.5 km/h 12.2 km/h 91% 0.0 mm 3 W/m2
07:28 2.9 °C 1.6 °C 1012.1 hPa Calm   12.2 km/h 91% 0.0 mm 4 W/m2
07:33 2.8 °C 1.5 °C 1012.1 hPa NNW 5.0 km/h 12.2 km/h 91% 0.0 mm 5 W/m2
07:38 2.8 °C 1.5 °C 1012.8 hPa WNW 1.1 km/h 7.2 km/h 91% 0.0 mm 10 W/m2
07:43 3.1 °C 2.4 °C 1012.4 hPa NW 8.7 km/h 13.4 km/h 95% 0.0 mm 37 W/m2
07:48 3.6 °C 2.9 °C 1012.8 hPa NW 6.1 km/h 13.4 km/h 95% 0.0 mm 51 W/m2
08:05 3.6 °C 2.7 °C 1012.8 hPa NW 7.2 km/h 12.2 km/h 94% 0.0 mm 28 W/m2
08:10 3.6 °C 2.7 °C 1012.8 hPa NNW 1.1 km/h 11.1 km/h 94% 0.0 mm 39 W/m2
08:15 3.9 °C 3.0 °C 1012.8 hPa NNE 5.0 km/h 11.1 km/h 94% 0.0 mm 90 W/m2
08:20 4.1 °C 3.1 °C 1012.8 hPa NNW 12.2 km/h 17.2 km/h 93% 0.0 mm 84 W/m2
08:25 4.3 °C 3.1 °C 1012.8 hPa NW 13.4 km/h 18.3 km/h 92% 0.0 mm 66 W/m2
08:30 4.4 °C 3.2 °C 1012.8 hPa NW 8.7 km/h 18.3 km/h 92% 0.0 mm 98 W/m2
08:35 4.6 °C 3.3 °C 1013.1 hPa NNW 7.2 km/h 15.8 km/h 91% 0.0 mm 83 W/m2
08:41 4.8 °C 3.4 °C 1013.4 hPa NNW 7.2 km/h 14.8 km/h 91% 0.0 mm 76 W/m2
08:46 4.8 °C 3.3 °C 1013.4 hPa NNW 8.7 km/h 15.8 km/h 90% 0.0 mm 73 W/m2
08:51 4.6 °C 3.1 °C 1013.4 hPa NW 12.2 km/h 15.8 km/h 90% 0.0 mm 80 W/m2
08:56 4.7 °C 3.2 °C 1013.4 hPa NW 9.7 km/h 15.8 km/h 90% 0.0 mm 84 W/m2
09:01 4.9 °C 3.4 °C 1013.4 hPa NW 9.7 km/h 15.8 km/h 90% 0.0 mm 90 W/m2
09:06 5.1 °C 3.4 °C 1013.4 hPa NNW 8.7 km/h 14.8 km/h 89% 0.0 mm 115 W/m2
09:11 5.3 °C 3.6 °C 1013.4 hPa NW 9.7 km/h 14.8 km/h 89% 0.0 mm 123 W/m2
09:16 6.4 °C 4.6 °C 1013.4 hPa NW 9.7 km/h 17.2 km/h 88% 0.0 mm 229 W/m2
09:21 6.1 °C 3.9 °C 1013.8 hPa NW 8.7 km/h 17.2 km/h 86% 0.0 mm 179 W/m2
09:26 6.4 °C 4.1 °C 1013.4 hPa NW 9.7 km/h 17.2 km/h 85% 0.0 mm 158 W/m2
09:31 6.6 °C 4.1 °C 1014.1 hPa NW 9.7 km/h 17.2 km/h 84% 0.0 mm 153 W/m2
09:36 6.9 °C 4.4 °C 1013.8 hPa NNW 8.7 km/h 17.2 km/h 84% 0.0 mm 216 W/m2
09:41 7.5 °C 4.6 °C 1014.1 hPa NNW 12.2 km/h 17.2 km/h 82% 0.0 mm 176 W/m2
09:46 7.7 °C 4.7 °C 1013.8 hPa NNW 12.2 km/h 17.2 km/h 81% 0.0 mm 136 W/m2
09:51 7.7 °C 4.7 °C 1014.1 hPa NNW 12.2 km/h 17.2 km/h 81% 0.0 mm 124 W/m2
09:56 7.7 °C 4.7 °C 1014.1 hPa NNW 11.1 km/h 18.3 km/h 81% 0.0 mm 125 W/m2
10:01 8.0 °C 4.9 °C 1014.4 hPa NW 9.7 km/h 18.3 km/h 81% 0.0 mm 127 W/m2
10:06 8.0 °C 4.8 °C 1014.1 hPa NW 9.7 km/h 17.2 km/h 80% 0.0 mm 128 W/m2
10:11 8.0 °C 4.8 °C 1014.1 hPa NNW 11.1 km/h 19.5 km/h 80% 0.0 mm 133 W/m2
10:16 8.1 °C 5.1 °C 1014.4 hPa NNW 9.7 km/h 19.5 km/h 81% 0.0 mm 139 W/m2
10:21 8.4 °C 5.3 °C 1014.8 hPa NNW 7.2 km/h 15.8 km/h 81% 0.0 mm 143 W/m2
10:26 9.0 °C 5.7 °C 1014.4 hPa NNW 8.7 km/h 12.2 km/h 80% 0.0 mm 146 W/m2
10:32 9.3 °C 5.5 °C 1014.4 hPa North 8.7 km/h 15.8 km/h 77% 0.0 mm 145 W/m2
10:37 9.3 °C 5.3 °C 1014.4 hPa NNW 5.0 km/h 15.8 km/h 76% 0.0 mm 139 W/m2
10:42 9.6 °C 5.8 °C 1014.8 hPa NNW 6.1 km/h 12.2 km/h 77% 0.0 mm 132 W/m2
10:47 9.8 °C 5.8 °C 1014.8 hPa NNW 7.2 km/h 11.1 km/h 76% 0.0 mm 124 W/m2
10:52 10.2 °C 5.9 °C 1014.8 hPa NNW 7.2 km/h 11.1 km/h 75% 0.0 mm 113 W/m2
10:57 10.2 °C 5.8 °C 1014.4 hPa NNW 6.1 km/h 11.1 km/h 74% 0.0 mm 107 W/m2
11:02 10.5 °C 6.3 °C 1014.4 hPa NNW 8.7 km/h 11.1 km/h 75% 0.0 mm 93 W/m2
11:07 11.0 °C 6.3 °C 1014.8 hPa North 3.5 km/h 9.7 km/h 73% 0.0 mm 76 W/m2
11:12 11.3 °C 6.4 °C 1014.4 hPa NNE 3.5 km/h 9.7 km/h 72% 0.0 mm 71 W/m2
11:17 11.7 °C 6.6 °C 1014.4 hPa NNE 3.5 km/h 8.7 km/h 71% 0.0 mm 80 W/m2
11:22 12.4 °C 6.9 °C 1014.4 hPa NNW 8.7 km/h 11.1 km/h 69% 0.0 mm 74 W/m2
11:27 12.6 °C 6.6 °C 1014.4 hPa NW 6.1 km/h 11.1 km/h 67% 0.0 mm 61 W/m2
11:32 12.6 °C 6.6 °C 1014.4 hPa NW 6.1 km/h 11.1 km/h 67% 0.0 mm 62 W/m2
11:37 13.3 °C 7.3 °C 1014.4 hPa NW 6.1 km/h 9.7 km/h 67% 0.0 mm 59 W/m2
11:43 13.9 °C 7.9 °C 1014.1 hPa NW 5.0 km/h 8.7 km/h 67% 0.0 mm 56 W/m2
11:48 14.6 °C 8.1 °C 1014.1 hPa NW 5.0 km/h 8.7 km/h 65% 0.0 mm 54 W/m2
11:53 15.0 °C 8.0 °C 1014.1 hPa NW 5.0 km/h 11.1 km/h 63% 0.0 mm 54 W/m2
11:58 15.0 °C 7.3 °C 1014.4 hPa NNW 5.0 km/h 11.1 km/h 60% 0.0 mm 53 W/m2
12:03 15.3 °C 7.3 °C 1014.1 hPa NW 3.5 km/h 11.1 km/h 59% 0.0 mm 52 W/m2
12:08 15.5 °C 6.8 °C 1014.1 hPa NNW 5.0 km/h 11.1 km/h 56% 0.0 mm 52 W/m2
12:13 15.3 °C 6.6 °C 1014.4 hPa NNW 5.0 km/h 11.1 km/h 56% 0.0 mm 52 W/m2
12:18 15.6 °C 6.8 °C 1014.1 hPa NW 3.5 km/h 8.7 km/h 56% 0.0 mm 52 W/m2
12:20 15.6 °C 6.8 °C 1013.8 hPa NW 3.5 km/h 8.7 km/h 56% 0.0 mm 52 W/m2
12:36 16.7 °C 7.6 °C 1014.1 hPa NNW 5.0 km/h 8.7 km/h 55% 0.0 mm 52 W/m2
12:41 16.7 °C 7.6 °C 1014.1 hPa NW 5.0 km/h 6.1 km/h 55% 0.0 mm 52 W/m2
12:46 18.5 °C 8.2 °C 1014.1 hPa North 6.1 km/h 7.2 km/h 51% 0.0 mm 73 W/m2
12:51 18.5 °C 8.2 °C 1014.1 hPa NE 6.1 km/h 7.2 km/h 51% 0.0 mm 73 W/m2
12:56 19.3 °C 8.3 °C 1013.8 hPa NE 2.6 km/h 7.2 km/h 49% 0.0 mm 73 W/m2
13:02 19.3 °C 8.3 °C 1013.8 hPa NE 2.6 km/h 6.1 km/h 49% 0.0 mm 73 W/m2
13:07 19.3 °C 8.3 °C 1013.8 hPa NE 2.6 km/h 6.1 km/h 49% 0.0 mm 73 W/m2
13:12 19.3 °C 8.3 °C 1014.1 hPa NE 2.6 km/h 6.1 km/h 49% 0.0 mm 73 W/m2
13:17 19.3 °C 8.3 °C 1013.8 hPa NE 2.6 km/h 6.1 km/h 49% 0.0 mm 73 W/m2
13:22 19.3 °C 8.3 °C 1013.8 hPa NE 2.6 km/h 6.1 km/h 49% 0.0 mm 73 W/m2
13:27 19.3 °C 8.3 °C 1014.1 hPa NE 2.6 km/h 6.1 km/h 49% 0.0 mm 73 W/m2
13:32 19.3 °C 8.3 °C 1014.1 hPa NE 2.6 km/h 6.1 km/h 49% 0.0 mm 73 W/m2
13:37 19.3 °C 8.3 °C 1013.8 hPa NE 2.6 km/h 6.1 km/h 49% 0.0 mm 73 W/m2
13:42 19.3 °C 8.3 °C 1014.1 hPa NE 2.6 km/h 6.1 km/h 49% 0.0 mm 73 W/m2
13:47 19.3 °C 8.3 °C 1013.8 hPa NE 2.6 km/h 6.1 km/h 49% 0.0 mm 73 W/m2
13:52 19.3 °C 8.3 °C 1013.8 hPa NE 2.6 km/h 6.1 km/h 49% 0.0 mm 73 W/m2
13:57 19.3 °C 8.3 °C 1013.8 hPa NE 2.6 km/h 6.1 km/h 49% 0.0 mm 73 W/m2
14:02 19.3 °C 8.3 °C 1013.8 hPa NE 2.6 km/h 6.1 km/h 49% 0.0 mm 73 W/m2
14:07 19.3 °C 8.3 °C 1014.1 hPa NE 2.6 km/h 6.1 km/h 49% 0.0 mm 73 W/m2
14:12 19.3 °C 8.3 °C 1014.4 hPa NE 2.6 km/h 6.1 km/h 49% 0.0 mm 73 W/m2
14:17 19.3 °C 8.3 °C 1014.4 hPa NE 2.6 km/h 6.1 km/h 49% 0.0 mm 73 W/m2
14:22 19.3 °C 8.3 °C 1014.4 hPa NE 2.6 km/h 6.1 km/h 49% 0.0 mm 73 W/m2
14:27 19.3 °C 8.3 °C 1014.1 hPa NE 2.6 km/h 6.1 km/h 49% 0.0 mm 73 W/m2
14:32 19.3 °C 8.3 °C 1014.4 hPa NE 2.6 km/h 6.1 km/h 49% 0.0 mm 73 W/m2
14:37 19.3 °C 8.3 °C 1014.4 hPa NE 2.6 km/h 6.1 km/h 49% 0.0 mm 73 W/m2
14:42 19.3 °C 8.3 °C 1014.8 hPa NE 2.6 km/h 6.1 km/h 49% 0.0 mm 73 W/m2
14:47 19.3 °C 8.3 °C 1014.8 hPa NE 2.6 km/h 6.1 km/h 49% 0.0 mm 73 W/m2
14:52 19.3 °C 8.3 °C 1014.8 hPa NE 2.6 km/h 6.1 km/h 49% 0.0 mm 73 W/m2
14:57 19.3 °C 8.3 °C 1014.8 hPa NE 2.6 km/h 6.1 km/h 49% 0.0 mm 73 W/m2
15:02 19.3 °C 8.3 °C 1015.1 hPa NE 2.6 km/h 6.1 km/h 49% 0.0 mm 73 W/m2
15:07 19.3 °C 8.3 °C 1015.1 hPa NE 2.6 km/h 6.1 km/h 49% 0.0 mm 73 W/m2
15:12 19.3 °C 8.3 °C 1015.1 hPa NE 2.6 km/h 6.1 km/h 49% 0.0 mm 73 W/m2
15:17 19.3 °C 8.3 °C 1015.5 hPa NE 2.6 km/h 6.1 km/h 49% 0.0 mm 73 W/m2
15:22 19.3 °C 8.3 °C 1015.5 hPa NE 2.6 km/h 6.1 km/h 49% 0.0 mm 73 W/m2
15:27 19.3 °C 8.3 °C 1015.5 hPa NE 2.6 km/h 6.1 km/h 49% 0.0 mm 73 W/m2
15:32 19.3 °C 8.3 °C 1015.5 hPa NE 2.6 km/h 6.1 km/h 49% 0.0 mm 73 W/m2
15:37 19.3 °C 8.3 °C 1015.5 hPa NE 2.6 km/h 6.1 km/h 49% 0.0 mm 73 W/m2
15:42 19.3 °C 8.3 °C 1015.8 hPa NE 2.6 km/h 6.1 km/h 49% 0.0 mm 73 W/m2
15:47 19.3 °C 8.3 °C 1015.8 hPa NE 2.6 km/h 6.1 km/h 49% 0.0 mm 73 W/m2
15:52 19.3 °C 8.3 °C 1015.8 hPa NE 2.6 km/h 6.1 km/h 49% 0.0 mm 73 W/m2
15:57 19.3 °C 8.3 °C 1015.8 hPa NE 2.6 km/h 6.1 km/h 49% 0.0 mm 73 W/m2
16:02 19.3 °C 8.3 °C 1016.1 hPa NE 2.6 km/h 6.1 km/h 49% 0.0 mm 73 W/m2
16:20 19.3 °C 8.3 °C 1016.5 hPa NE 2.6 km/h 6.1 km/h 49% 0.0 mm 73 W/m2
16:25 19.3 °C 8.3 °C 1016.5 hPa NE 2.6 km/h 6.1 km/h 49% 0.0 mm 73 W/m2
16:30 19.3 °C 8.3 °C 1016.5 hPa NE 2.6 km/h 6.1 km/h 49% 0.0 mm 73 W/m2
16:35 19.3 °C 8.3 °C 1016.5 hPa NE 2.6 km/h 6.1 km/h 49% 0.0 mm 73 W/m2
16:40 19.3 °C 8.3 °C 1016.8 hPa NE 2.6 km/h 6.1 km/h 49% 0.0 mm 73 W/m2
16:45 19.3 °C 8.3 °C 1016.8 hPa NE 2.6 km/h 6.1 km/h 49% 0.0 mm 73 W/m2
16:50 19.3 °C 8.3 °C 1016.8 hPa NE 2.6 km/h 6.1 km/h 49% 0.0 mm 73 W/m2
16:55 19.3 °C 8.3 °C 1017.2 hPa NE 2.6 km/h 6.1 km/h 49% 0.0 mm 73 W/m2
17:00 19.3 °C 8.3 °C 1017.2 hPa NE 2.6 km/h 6.1 km/h 49% 0.0 mm 73 W/m2
17:05 19.3 °C 8.3 °C 1017.2 hPa NE 2.6 km/h 6.1 km/h 49% 0.0 mm 73 W/m2
17:10 19.3 °C 8.3 °C 1017.2 hPa NE 2.6 km/h 6.1 km/h 49% 0.0 mm 73 W/m2
17:15 19.3 °C 8.3 °C 1017.2 hPa NE 2.6 km/h 6.1 km/h 49% 0.0 mm 73 W/m2
17:20 19.3 °C 8.3 °C 1016.8 hPa NE 2.6 km/h 6.1 km/h 49% 0.0 mm 73 W/m2
17:26 19.3 °C 8.3 °C 1017.2 hPa NE 2.6 km/h 6.1 km/h 49% 0.0 mm 73 W/m2
17:31 19.3 °C 8.3 °C 1017.2 hPa NE 2.6 km/h 6.1 km/h 49% 0.0 mm 73 W/m2
17:36 19.3 °C 8.3 °C 1017.5 hPa NE 2.6 km/h 6.1 km/h 49% 0.0 mm 73 W/m2
17:41 19.3 °C 8.3 °C 1017.5 hPa NE 2.6 km/h 6.1 km/h 49% 0.0 mm 73 W/m2
17:46 19.3 °C 8.3 °C 1017.5 hPa NE 2.6 km/h 6.1 km/h 49% 0.0 mm 73 W/m2
17:51 19.3 °C 8.3 °C 1017.5 hPa NE 2.6 km/h 6.1 km/h 49% 0.0 mm 73 W/m2
17:56 19.3 °C 8.3 °C 1017.8 hPa NE 2.6 km/h 6.1 km/h 49% 0.0 mm 73 W/m2
18:01 19.3 °C 8.3 °C 1017.5 hPa NE 2.6 km/h 6.1 km/h 49% 0.0 mm 73 W/m2
18:06 19.3 °C 8.3 °C 1017.8 hPa NE 2.6 km/h 6.1 km/h 49% 0.0 mm 73 W/m2
18:11 19.3 °C 8.3 °C 1018.2 hPa NE 2.6 km/h 6.1 km/h 49% 0.0 mm 73 W/m2
18:16 19.3 °C 8.3 °C 1018.2 hPa NE 2.6 km/h 6.1 km/h 49% 0.0 mm 73 W/m2
18:21 19.3 °C 8.3 °C 1017.8 hPa NE 2.6 km/h 6.1 km/h 49% 0.0 mm 73 W/m2
18:26 19.3 °C 8.3 °C 1017.8 hPa NE 2.6 km/h 6.1 km/h 49% 0.0 mm 73 W/m2
18:31 19.3 °C 8.3 °C 1017.8 hPa NE 2.6 km/h 6.1 km/h 49% 0.0 mm 73 W/m2
18:36 19.3 °C 8.3 °C 1018.2 hPa NE 2.6 km/h 6.1 km/h 49% 0.0 mm 73 W/m2
18:41 19.3 °C 8.3 °C 1018.2 hPa NE 2.6 km/h 6.1 km/h 49% 0.0 mm 73 W/m2
18:46 19.3 °C 8.3 °C 1018.2 hPa NE 2.6 km/h 6.1 km/h 49% 0.0 mm 73 W/m2
18:51 19.3 °C 8.3 °C 1018.2 hPa NE 2.6 km/h 6.1 km/h 49% 0.0 mm 73 W/m2
18:56 19.3 °C 8.3 °C 1018.2 hPa NE 2.6 km/h 6.1 km/h 49% 0.0 mm 73 W/m2
19:01 19.3 °C 8.3 °C 1018.2 hPa NE 2.6 km/h 6.1 km/h 49% 0.0 mm 73 W/m2
19:06 19.3 °C 8.3 °C 1018.2 hPa NE 2.6 km/h 6.1 km/h 49% 0.0 mm 73 W/m2
19:11 19.3 °C 8.3 °C 1018.2 hPa NE 2.6 km/h 6.1 km/h 49% 0.0 mm 73 W/m2
19:16 19.3 °C 8.3 °C 1018.5 hPa NE 2.6 km/h 6.1 km/h 49% 0.0 mm 73 W/m2
19:21 19.3 °C 8.3 °C 1018.5 hPa NE 2.6 km/h 6.1 km/h 49% 0.0 mm 73 W/m2
19:26 19.3 °C 8.3 °C 1018.2 hPa NE 2.6 km/h 6.1 km/h 49% 0.0 mm 73 W/m2
19:31 19.3 °C 8.3 °C 1018.5 hPa NE 2.6 km/h 6.1 km/h 49% 0.0 mm 73 W/m2
19:36 19.3 °C 8.3 °C 1018.5 hPa NE 2.6 km/h 6.1 km/h 49% 0.0 mm 73 W/m2
19:41 19.3 °C 8.3 °C 1018.5 hPa NE 2.6 km/h 6.1 km/h 49% 0.0 mm 73 W/m2
19:46 19.3 °C 8.3 °C 1018.5 hPa NE 2.6 km/h 6.1 km/h 49% 0.0 mm 73 W/m2
19:51 19.3 °C 8.3 °C 1018.5 hPa NE 2.6 km/h 6.1 km/h 49% 0.0 mm 73 W/m2
19:56 19.3 °C 8.3 °C 1018.5 hPa NE 2.6 km/h 6.1 km/h 49% 0.0 mm 73 W/m2
20:01 19.3 °C 8.3 °C 1018.5 hPa NE 2.6 km/h 6.1 km/h 49% 0.0 mm 73 W/m2
20:05 0.0 °C -28.1 °C 1024.9 hPa NNW 7.2 km/h 12.2 km/h 10% 0.0 mm 82 W/m2
20:06 19.3 °C 8.3 °C 1018.5 hPa NE 2.6 km/h 6.1 km/h 49% 0.0 mm 73 W/m2
20:11 19.3 °C 8.3 °C 1018.8 hPa NE 2.6 km/h 6.1 km/h 49% 0.0 mm 73 W/m2
20:35 10.9 °C 5.7 °C 1019.5 hPa NW 2.6 km/h 5.0 km/h 70% 0.0 mm 98 W/m2
21:05 13.3 °C 6.8 °C 1019.2 hPa North 3.5 km/h 5.0 km/h 65% 0.0 mm 166 W/m2
21:35 14.8 °C 6.1 °C 1018.5 hPa North 5.0 km/h 7.2 km/h 56% 0.0 mm 204 W/m2
22:05 15.4 °C 6.7 °C 1017.8 hPa NW 3.5 km/h 6.1 km/h 56% 0.0 mm 184 W/m2
22:35 17.1 °C 7.2 °C 1017.2 hPa North 5.0 km/h 7.2 km/h 52% 0.0 mm 134 W/m2
23:05 19.8 °C 7.5 °C 1016.5 hPa North 3.5 km/h 5.0 km/h 45% 0.0 mm 106 W/m2
23:35 16.8 °C 5.1 °C 1016.1 hPa NW 15.8 km/h 19.5 km/h 46% 0.0 mm 122 W/m2
Northern Hawkes Bay. New Zealand Historic Data
Compliments of Weather Underground - 2 mb